地図

経路データ

SID SEASON NUMBER BASIN SUBBASIN NAME ISO_TIME NATURE LAT LON WMO_WIND WMO_PRES WMO_AGENCY TRACK_TYPE DIST2LAND LANDFALL IFLAG USA_AGENCY USA_ATCF_ID USA_LAT USA_LON USA_RECORD USA_STATUS USA_WIND USA_PRES USA_SSHS USA_R34_NE USA_R34_SE USA_R34_SW USA_R34_NW USA_R50_NE USA_R50_SE USA_R50_SW USA_R50_NW USA_R64_NE USA_R64_SE USA_R64_SW USA_R64_NW USA_POCI USA_ROCI USA_RMW USA_EYE TOKYO_LAT TOKYO_LON TOKYO_GRADE TOKYO_WIND TOKYO_PRES TOKYO_R50_DIR TOKYO_R50_LONG TOKYO_R50_SHORT TOKYO_R30_DIR TOKYO_R30_LONG TOKYO_R30_SHORT TOKYO_LAND CMA_LAT CMA_LON CMA_CAT CMA_WIND CMA_PRES HKO_LAT HKO_LON HKO_CAT HKO_WIND HKO_PRES NEWDELHI_LAT NEWDELHI_LON NEWDELHI_GRADE NEWDELHI_WIND NEWDELHI_PRES NEWDELHI_CI NEWDELHI_DP NEWDELHI_POCI REUNION_LAT REUNION_LON REUNION_TYPE REUNION_WIND REUNION_PRES REUNION_TNUM REUNION_CI REUNION_RMW REUNION_R34_NE REUNION_R34_SE REUNION_R34_SW REUNION_R34_NW REUNION_R50_NE REUNION_R50_SE REUNION_R50_SW REUNION_R50_NW REUNION_R64_NE REUNION_R64_SE REUNION_R64_SW REUNION_R64_NW BOM_LAT BOM_LON BOM_TYPE BOM_WIND BOM_PRES BOM_TNUM BOM_CI BOM_RMW BOM_R34_NE BOM_R34_SE BOM_R34_SW BOM_R34_NW BOM_R50_NE BOM_R50_SE BOM_R50_SW BOM_R50_NW BOM_R64_NE BOM_R64_SE BOM_R64_SW BOM_R64_NW BOM_ROCI BOM_POCI BOM_EYE BOM_POS_METHOD BOM_PRES_METHOD NADI_LAT NADI_LON NADI_CAT NADI_WIND NADI_PRES WELLINGTON_LAT WELLINGTON_LON WELLINGTON_WIND WELLINGTON_PRES DS824_LAT DS824_LON DS824_STAGE DS824_WIND DS824_PRES TD9636_LAT TD9636_LON TD9636_STAGE TD9636_WIND TD9636_PRES TD9635_LAT TD9635_LON TD9635_WIND TD9635_PRES TD9635_ROCI NEUMANN_LAT NEUMANN_LON NEUMANN_CLASS NEUMANN_WIND NEUMANN_PRES MLC_LAT MLC_LON MLC_CLASS MLC_WIND MLC_PRES USA_GUST BOM_GUST BOM_GUST_PER REUNION_GUST REUNION_GUST_PER USA_SEAHGT USA_SEARAD_NE USA_SEARAD_SE USA_SEARAD_SW USA_SEARAD_NW STORM_SPEED STORM_DIR
1986205N24305 1986 66 NA NA NOT_NAMED 1986-07-23 12:00:00 TS 24.0000 -54.9000 20 hurdat_atl main 1272 1233 O_____________ hurdat_atl AL031986 24.0000 -54.9000 TD 20 -1 11 286
1986205N24305 1986 66 NA NA NOT_NAMED 1986-07-23 15:00:00 TS 24.1478 -55.4798 main 1224 1183 P_____________ AL031986 24.1478 -55.4798 TD 20 -1 11 285
1986205N24305 1986 66 NA NA NOT_NAMED 1986-07-23 18:00:00 TS 24.3000 -56.1000 20 hurdat_atl main 1183 1138 O_____________ hurdat_atl AL031986 24.3000 -56.1000 TD 20 -1 12 285
1986205N24305 1986 66 NA NA NOT_NAMED 1986-07-23 21:00:00 TS 24.4574 -56.7850 main 1137 1086 P_____________ AL031986 24.4574 -56.7850 TD 20 -1 13 283
1986205N24305 1986 66 NA NA NOT_NAMED 1986-07-24 00:00:00 TS 24.6000 -57.5000 20 hurdat_atl main 1086 1039 O_____________ hurdat_atl AL031986 24.6000 -57.5000 TD 20 -1 13 281
1986205N24305 1986 66 NA NA NOT_NAMED 1986-07-24 03:00:00 TS 24.7075 -58.2227 main 1039 995 P_____________ AL031986 24.7075 -58.2227 TD 22 -1 13 279
1986205N24305 1986 66 NA NA NOT_NAMED 1986-07-24 06:00:00 TS 24.8000 -58.9000 25 hurdat_atl main 995 961 O_____________ hurdat_atl AL031986 24.8000 -58.9000 TD 25 -1 12 278
1986205N24305 1986 66 NA NA NOT_NAMED 1986-07-24 09:00:00 TS 24.8771 -59.4804 main 961 937 P_____________ AL031986 24.8771 -59.4804 TD 25 -1 10 281
1986205N24305 1986 66 NA NA NOT_NAMED 1986-07-24 12:00:00 TS 25.0000 -60.0000 25 hurdat_atl main 937 921 O_____________ hurdat_atl AL031986 25.0000 -60.0000 TD 25 -1 10 290
1986205N24305 1986 66 NA NA NOT_NAMED 1986-07-24 15:00:00 TS 25.2274 -60.5224 main 924 918 P_____________ AL031986 25.2274 -60.5224 TD 25 -1 10 299
1986205N24305 1986 66 NA NA NOT_NAMED 1986-07-24 18:00:00 TS 25.5000 -61.0000 25 hurdat_atl main 924 918 O_____________ hurdat_atl AL031986 25.5000 -61.0000 TD 25 -1 10 303
1986205N24305 1986 66 NA NA NOT_NAMED 1986-07-24 21:00:00 TS 25.7574 -61.4376 main 933 924 P_____________ AL031986 25.7574 -61.4376 TD 25 -1 9 305
1986205N24305 1986 66 NA NA NOT_NAMED 1986-07-25 00:00:00 TS 26.0000 -61.8000 25 hurdat_atl main 935 930 O_____________ hurdat_atl AL031986 26.0000 -61.8000 TD 25 -1 7 308
1986205N24305 1986 66 NA NA NOT_NAMED 1986-07-25 03:00:00 TS 26.1922 -62.0580 main 943 943 P_____________ AL031986 26.1922 -62.0580 TD 25 -1 6 312
1986205N24305 1986 66 NA NA NOT_NAMED 1986-07-25 06:00:00 TS 26.4000 -62.3000 25 hurdat_atl main 956 956 O_____________ hurdat_atl AL031986 26.4000 -62.3000 TD 25 -1 7 313
1986205N24305 1986 66 NA NA NOT_NAMED 1986-07-25 09:00:00 TS 26.6625 -62.6278 main 977 974 P_____________ AL031986 26.6625 -62.6278 TD 25 -1 9 314
1986205N24305 1986 66 NA NA NOT_NAMED 1986-07-25 12:00:00 TS 27.0000 -63.0000 25 hurdat_atl main 997 997 O_____________ hurdat_atl AL031986 27.0000 -63.0000 TD 25 -1 11 318
1986205N24305 1986 66 NA NA NOT_NAMED 1986-07-25 15:00:00 TS 27.4502 -63.4220 main 1041 1039 P_____________ AL031986 27.4502 -63.4220 TD 27 -1 11 322
1986205N24305 1986 66 NA NA NOT_NAMED 1986-07-25 18:00:00 TS 27.9000 -63.8000 30 hurdat_atl main 1077 1077 O_____________ hurdat_atl AL031986 27.9000 -63.8000 TD 30 -1 9 325
1986205N24305 1986 66 NA NA NOT_NAMED 1986-07-25 21:00:00 TS 28.1997 -64.0084 main 1107 1107 P_____________ AL031986 28.1997 -64.0084 TD 30 -1 7 330
1986205N24305 1986 66 NA NA NOT_NAMED 1986-07-26 00:00:00 TS 28.5000 -64.2000 30 hurdat_atl main 1137 1137 O_____________ hurdat_atl AL031986 28.5000 -64.2000 TD 30 -1 9 328
1986205N24305 1986 66 NA NA NOT_NAMED 1986-07-26 03:00:00 TS 28.9501 -64.5346 main 1187 1183 P_____________ AL031986 28.9501 -64.5346 TD 30 -1 11 326
1986205N24305 1986 66 NA NA NOT_NAMED 1986-07-26 06:00:00 TS 29.4000 -64.9000 30 hurdat_atl main 1209 1169 O_____________ hurdat_atl AL031986 29.4000 -64.9000 TD 30 -1 10 319
1986205N24305 1986 66 NA NA NOT_NAMED 1986-07-26 09:00:00 TS 29.6776 -65.2674 main 1169 1133 P_____________ AL031986 29.6776 -65.2674 TD 30 -1 8 319
1986205N24305 1986 66 NA NA NOT_NAMED 1986-07-26 12:00:00 TS 30.0000 -65.5000 30 hurdat_atl main 1133 1100 O_____________ hurdat_atl AL031986 30.0000 -65.5000 TD 30 -1 9 350
1986205N24305 1986 66 NA NA NOT_NAMED 1986-07-26 15:00:00 TS 30.5850 -65.4534 main 1093 1073 P_____________ AL031986 30.5850 -65.4534 TD 27 -1 12 8
1986205N24305 1986 66 NA NA NOT_NAMED 1986-07-26 18:00:00 TS 31.2000 -65.3000 25 hurdat_atl main 1073 1056 O_____________ hurdat_atl AL031986 31.2000 -65.3000 TD 25 -1 10 10
1986205N24305 1986 66 NA NA NOT_NAMED 1986-07-26 21:00:00 TS 31.6150 -65.2423 main 1059 1038 P_____________ AL031986 31.6150 -65.2423 TD 25 -1 8 6
1986205N24305 1986 66 NA NA NOT_NAMED 1986-07-27 00:00:00 TS 32.0000 -65.2000 25 hurdat_atl main 1038 1014 O_____________ hurdat_atl AL031986 32.0000 -65.2000 TD 25 -1 9 5
1986205N24305 1986 66 NA NA NOT_NAMED 1986-07-27 03:00:00 TS 32.4850 -65.1500 main 1022 1001 P_____________ AL031986 32.4850 -65.1500 TD 25 -1 10 5
1986205N24305 1986 66 NA NA NOT_NAMED 1986-07-27 06:00:00 TS 33.0000 -65.1000 25 hurdat_atl main 1001 986 O_____________ hurdat_atl AL031986 33.0000 -65.1000 TD 25 -1 9 0
1986205N24305 1986 66 NA NA NOT_NAMED 1986-07-27 09:00:00 TS 33.4246 -65.1225 main 986 962 P_____________ AL031986 33.4246 -65.1225 TD 25 -1 10 5
1986205N24305 1986 66 NA NA NOT_NAMED 1986-07-27 12:00:00 TS 34.0000 -65.0000 25 hurdat_atl main 962 890 O_____________ hurdat_atl AL031986 34.0000 -65.0000 TD 25 -1 16 17
1986205N24305 1986 66 NA NA NOT_NAMED 1986-07-27 15:00:00 TS 34.9402 -64.5488 main 895 827 P_____________ AL031986 34.9402 -64.5488 TD 25 -1 22 24
1986205N24305 1986 66 NA NA NOT_NAMED 1986-07-27 18:00:00 TS 36.0000 -63.9000 25 hurdat_atl main 824 753 O_____________ hurdat_atl AL031986 36.0000 -63.9000 TD 25 -1 23 27
1986205N24305 1986 66 NA NA NOT_NAMED 1986-07-27 21:00:00 TS 36.9972 -63.2310 main 744 676 P_____________ AL031986 36.9972 -63.2310 TD 22 -1 21 32
1986205N24305 1986 66 NA NA NOT_NAMED 1986-07-28 00:00:00 TS 37.8000 -62.5000 20 hurdat_atl main 676 664 O_____________ hurdat_atl AL031986 37.8000 -62.5000 TD 20 -1 16 48
1986205N24305 1986 66 NA NA NOT_NAMED 1986-07-28 03:00:00 TS 38.0826 -61.7282 main 672 662 P_____________ AL031986 38.0826 -61.7282 TD 20 -1 14 59
1986205N24305 1986 66 NA NA NOT_NAMED 1986-07-28 06:00:00 TS 38.5000 -61.0000 20 hurdat_atl main 662 601 O_____________ hurdat_atl AL031986 38.5000 -61.0000 TD 20 -1 19 34
1986205N24305 1986 66 NA NA NOT_NAMED 1986-07-28 09:00:00 TS 39.6228 -60.3763 main 592 465 P_____________ AL031986 39.6228 -60.3763 TD 20 -1 29 19
1986205N24305 1986 66 NA NA NOT_NAMED 1986-07-28 12:00:00 TS 41.2000 -59.8000 20 hurdat_atl main 455 O_____________ hurdat_atl AL031986 41.2000 -59.8000 TD 20 -1 33 15

IBTrACS Databaseについて

本データベースは、米国NOAAが公開する1842年以降の世界の熱帯低気圧のベストトラックデータアーカイブInternational Best Track Archive for Climate Stewardship (IBTrACS)を、ウェブで閲覧しやすい形式に変換したものです。

最終更新日:2021-10-08